createdAt,value
2018-05-29T00:01:36.227Z,10.10
2018-05-29T00:04:02.512Z,10.53
2018-05-29T00:06:28.782Z,10.47
2018-05-29T00:08:55.006Z,10.33
2018-05-29T00:11:21.734Z,10.30
2018-05-29T00:13:48.010Z,11.17
2018-05-29T00:16:14.291Z,11.03
2018-05-29T00:18:40.567Z,10.17
2018-05-29T00:21:06.841Z,11.67
2018-05-29T00:23:33.833Z,10.70
2018-05-29T00:26:00.056Z,11.67
2018-05-29T00:28:26.358Z,10.93
2018-05-29T00:30:52.626Z,11.30
2018-05-29T00:33:18.898Z,10.60
2018-05-29T00:35:45.117Z,10.60
2018-05-29T00:38:11.415Z,11.50
2018-05-29T00:40:37.752Z,11.63
2018-05-29T00:43:04.817Z,11.47
2018-05-29T00:45:31.095Z,10.27
2018-05-29T00:47:57.377Z,11.20
2018-05-29T00:50:24.441Z,10.17
2018-05-29T00:52:50.738Z,10.73
2018-05-29T00:55:35.578Z,10.60
2018-05-29T00:58:01.873Z,10.83
2018-05-29T01:00:28.186Z,9.80
2018-05-29T01:02:54.465Z,10.47
2018-05-29T01:05:20.737Z,10.80
2018-05-29T01:07:46.985Z,9.70
2018-05-29T01:10:13.238Z,11.60
2018-05-29T01:12:40.275Z,11.13
2018-05-29T01:15:06.651Z,11.20
2018-05-29T01:17:32.877Z,11.23
2018-05-29T01:19:59.162Z,10.73
2018-05-29T01:22:25.422Z,12.93
2018-05-29T01:24:52.412Z,10.43
2018-05-29T01:27:18.713Z,11.07
2018-05-29T01:29:45.705Z,10.93
2018-05-29T01:32:11.977Z,10.87
2018-05-29T01:34:38.309Z,10.87
2018-05-29T01:37:04.595Z,10.57
2018-05-29T01:39:30.901Z,11.03
2018-05-29T01:41:57.925Z,11.73
2018-05-29T01:44:24.232Z,10.83
2018-05-29T01:46:50.557Z,10.70
2018-05-29T01:49:16.833Z,11.80
2018-05-29T01:51:43.101Z,12.80
2018-05-29T01:54:09.392Z,12.30
2018-05-29T01:56:35.678Z,11.67
2018-05-29T01:59:02.701Z,10.90
2018-05-29T02:01:28.957Z,11.97
2018-05-29T02:03:55.240Z,10.63
2018-05-29T02:06:21.541Z,12.80
2018-05-29T02:08:48.557Z,13.07
2018-05-29T02:11:14.843Z,11.57
2018-05-29T02:13:41.094Z,13.10
2018-05-29T02:16:07.430Z,12.33
2018-05-29T02:18:33.735Z,11.80
2018-05-29T02:21:00.022Z,12.63
2018-05-29T02:23:26.262Z,12.43
2018-05-29T02:25:52.510Z,12.97
2018-05-29T02:28:18.770Z,12.33
2018-05-29T02:30:47.667Z,12.73
2018-05-29T02:33:14.061Z,12.07
2018-05-29T02:35:40.334Z,10.97
2018-05-29T02:38:06.618Z,13.23
2018-05-29T02:40:32.902Z,11.37
2018-05-29T02:42:59.177Z,13.70
2018-05-29T02:45:25.477Z,14.30
2018-05-29T02:47:51.746Z,13.13
2018-05-29T02:50:17.975Z,13.97
2018-05-29T02:52:44.533Z,13.70
2018-05-29T02:55:10.794Z,15.63
2018-05-29T02:57:37.086Z,13.00
2018-05-29T03:00:04.146Z,11.23
2018-05-29T03:02:30.416Z,14.80
2018-05-29T03:04:56.959Z,13.33
2018-05-29T03:07:23.230Z,13.77
2018-05-29T03:09:50.195Z,12.53
2018-05-29T03:12:17.281Z,11.20
2018-05-29T03:14:43.550Z,11.00
2018-05-29T03:17:09.885Z,14.23
2018-05-29T03:19:36.171Z,10.50
2018-05-29T03:22:02.476Z,13.87
2018-05-29T03:24:28.743Z,14.33
2018-05-29T03:26:55.002Z,15.17
2018-05-29T03:29:21.597Z,15.17
2018-05-29T03:31:48.614Z,15.37
2018-05-29T03:34:14.862Z,15.63
2018-05-29T03:36:41.126Z,15.30
2018-05-29T03:39:08.149Z,14.03
2018-05-29T03:41:34.436Z,14.97
2018-05-29T03:44:00.754Z,15.77
2018-05-29T03:46:27.770Z,15.07
2018-05-29T03:48:54.025Z,16.20
2018-05-29T03:51:20.354Z,15.43
2018-05-29T03:53:46.665Z,12.37
2018-05-29T03:56:12.909Z,15.17
2018-05-29T03:58:39.190Z,16.50
2018-05-29T04:01:06.190Z,16.13
2018-05-29T04:03:32.469Z,15.00
2018-05-29T04:05:59.452Z,15.43
2018-05-29T04:08:25.734Z,15.57
2018-05-29T04:10:53.693Z,15.97
2018-05-29T04:13:19.949Z,15.53
2018-05-29T04:15:47.202Z,14.90
2018-05-29T04:18:13.450Z,15.47
2018-05-29T04:20:39.733Z,15.13
2018-05-29T04:23:05.990Z,15.17
2018-05-29T04:25:32.244Z,14.73
2018-05-29T04:27:58.549Z,15.33
2018-05-29T04:30:24.861Z,16.43
2018-05-29T04:32:51.142Z,15.93
2018-05-29T04:35:17.431Z,14.97
2018-05-29T04:37:43.684Z,14.70
2018-05-29T04:40:09.950Z,14.10
2018-05-29T04:42:36.204Z,14.23
2018-05-29T04:45:02.519Z,15.10
2018-05-29T04:47:28.829Z,14.10
2018-05-29T04:49:55.162Z,14.53
2018-05-29T04:52:21.443Z,15.10
2018-05-29T04:54:47.741Z,14.23
2018-05-29T04:57:14.029Z,13.43
2018-05-29T04:59:41.066Z,14.60
2018-05-29T05:02:07.379Z,13.70
2018-05-29T05:04:33.682Z,14.03
2018-05-29T05:06:59.998Z,13.47
2018-05-29T05:09:27.048Z,12.83
2018-05-29T05:11:53.337Z,13.17
2018-05-29T05:14:19.614Z,13.03
2018-05-29T05:16:46.754Z,11.73
2018-05-29T05:19:13.821Z,11.73
2018-05-29T05:21:40.881Z,12.10
2018-05-29T05:24:07.974Z,11.40
2018-05-29T05:26:34.275Z,12.40
2018-05-29T05:29:01.267Z,11.80
2018-05-29T05:31:27.601Z,11.23
2018-05-29T05:33:53.910Z,11.17
2018-05-29T05:36:20.970Z,10.93
2018-05-29T05:38:47.301Z,11.40
2018-05-29T05:41:14.376Z,12.03
2018-05-29T05:43:40.678Z,11.00
2018-05-29T05:46:07.761Z,11.37
2018-05-29T05:48:34.034Z,11.73
2018-05-29T05:51:00.353Z,12.00
2018-05-29T05:53:26.657Z,10.93
2018-05-29T05:55:53.014Z,11.97
2018-05-29T05:58:19.306Z,11.23
2018-05-29T06:00:46.610Z,11.73
2018-05-29T06:03:12.868Z,14.07
2018-05-29T06:05:39.204Z,11.30
2018-05-29T06:08:05.478Z,11.37
2018-05-29T06:10:32.478Z,10.87
2018-05-29T06:12:58.851Z,11.63
2018-05-29T06:15:25.879Z,11.63
2018-05-29T06:17:52.174Z,10.73
2018-05-29T06:20:19.205Z,12.10
2018-05-29T06:22:46.260Z,14.17
2018-05-29T06:25:13.306Z,11.67
2018-05-29T06:27:39.622Z,12.43
2018-05-29T06:30:05.937Z,11.77
2018-05-29T06:32:32.254Z,11.90
2018-05-29T06:34:58.606Z,14.13
2018-05-29T06:37:24.932Z,11.53
2018-05-29T06:39:51.283Z,13.30
2018-05-29T06:42:20.481Z,11.63
2018-05-29T06:44:47.600Z,13.43
2018-05-29T06:47:13.883Z,13.57
2018-05-29T06:49:40.185Z,12.90
2018-05-29T06:52:06.477Z,13.17
2018-05-29T06:54:32.785Z,13.60
2018-05-29T06:56:59.058Z,12.60
2018-05-29T06:59:25.315Z,13.10
2018-05-29T07:01:52.330Z,13.37
2018-05-29T07:04:19.328Z,17.73
2018-05-29T07:06:46.366Z,13.30
2018-05-29T07:09:28.681Z,15.17
2018-05-29T07:11:55.736Z,17.00
2018-05-29T07:14:22.109Z,14.17
2018-05-29T07:16:48.380Z,14.40
2018-05-29T07:19:14.644Z,15.07
2018-05-29T07:21:41.697Z,15.27
2018-05-29T07:24:10.391Z,14.60
2018-05-29T07:26:36.801Z,15.87
2018-05-29T07:29:03.072Z,16.93
2018-05-29T07:31:29.368Z,15.50
2018-05-29T07:33:55.659Z,14.00
2018-05-29T07:36:21.957Z,14.60
2018-05-29T07:38:49.010Z,15.27
2018-05-29T07:41:16.026Z,15.40
2018-05-29T07:43:42.286Z,15.77
2018-05-29T07:46:08.553Z,15.97
2018-05-29T07:48:34.809Z,15.00
2018-05-29T07:51:01.069Z,16.30
2018-05-29T07:53:27.314Z,16.47
2018-05-29T07:55:53.610Z,15.17
2018-05-29T07:58:19.865Z,15.13
2018-05-29T08:00:46.179Z,15.67
2018-05-29T08:03:12.474Z,15.57
2018-05-29T08:05:39.546Z,18.57
2018-05-29T08:08:05.854Z,15.70
2018-05-29T08:10:32.203Z,16.33
2018-05-29T08:12:58.429Z,15.27
2018-05-29T08:15:24.710Z,14.43
2018-05-29T08:17:50.995Z,16.93
2018-05-29T08:20:17.261Z,15.80
2018-05-29T08:22:44.258Z,15.40
2018-05-29T08:25:10.542Z,17.43
2018-05-29T08:27:37.557Z,16.07
2018-05-29T08:30:03.887Z,17.20
2018-05-29T08:32:30.157Z,16.10
2018-05-29T08:34:57.174Z,14.10
2018-05-29T08:37:23.541Z,17.77
2018-05-29T08:39:49.841Z,15.83
2018-05-29T08:42:16.389Z,17.17
2018-05-29T08:44:42.742Z,15.27
2018-05-29T08:47:11.735Z,15.63
2018-05-29T08:49:38.085Z,18.30
2018-05-29T08:52:04.357Z,16.87
2018-05-29T08:54:30.646Z,14.40
2018-05-29T08:56:56.889Z,15.33
2018-05-29T08:59:23.211Z,15.67
2018-05-29T09:01:49.531Z,24.00
2018-05-29T09:04:15.858Z,22.10
2018-05-29T09:06:42.094Z,14.83
2018-05-29T09:09:08.381Z,15.27
2018-05-29T09:11:34.646Z,15.33
2018-05-29T09:14:00.969Z,14.57
2018-05-29T09:16:27.974Z,18.13
2018-05-29T09:18:54.358Z,16.67
2018-05-29T09:21:21.426Z,15.63
2018-05-29T09:23:47.705Z,17.57
2018-05-29T09:26:14.010Z,16.80
2018-05-29T09:28:40.271Z,17.60
2018-05-29T09:31:06.564Z,18.87
2018-05-29T09:33:32.845Z,18.30
2018-05-29T09:35:59.133Z,21.10
2018-05-29T09:38:26.134Z,17.77
2018-05-29T09:40:52.386Z,15.00
2018-05-29T09:43:18.692Z,15.10
2018-05-29T09:45:44.955Z,17.30
2018-05-29T09:48:11.285Z,16.90
2018-05-29T09:50:37.518Z,16.83
2018-05-29T09:53:03.849Z,15.57
2018-05-29T09:55:30.158Z,16.10
2018-05-29T09:57:56.494Z,13.30
2018-05-29T10:00:28.937Z,14.77
2018-05-29T10:02:55.939Z,16.40
2018-05-29T10:05:22.237Z,14.57
2018-05-29T10:07:49.286Z,14.73
2018-05-29T10:10:18.797Z,15.17
2018-05-29T10:12:45.153Z,13.60
2018-05-29T10:15:11.461Z,12.50
2018-05-29T10:17:38.525Z,13.97
2018-05-29T10:20:04.846Z,13.63
2018-05-29T10:22:31.149Z,14.80
2018-05-29T10:24:57.441Z,15.73
2018-05-29T10:27:23.698Z,15.00
2018-05-29T10:29:49.945Z,14.00
2018-05-29T10:32:16.264Z,14.33
2018-05-29T10:34:42.515Z,12.33
2018-05-29T10:37:08.782Z,13.87
2018-05-29T10:39:35.050Z,19.07
2018-05-29T10:42:02.071Z,13.13
2018-05-29T10:44:28.359Z,12.27
2018-05-29T10:46:54.618Z,12.30
2018-05-29T10:49:20.837Z,11.50
2018-05-29T10:51:47.126Z,11.45
2018-05-29T10:54:14.120Z,10.52
2018-05-29T10:56:40.414Z,12.45
2018-05-29T10:59:07.439Z,9.32
2018-05-29T11:01:33.688Z,9.73
2018-05-29T11:03:59.937Z,9.98
2018-05-29T11:06:26.929Z,9.70
2018-05-29T11:08:53.253Z,10.73
2018-05-29T11:11:19.490Z,10.75
2018-05-29T11:13:45.752Z,9.98
2018-05-29T11:16:12.167Z,10.05
2018-05-29T11:18:38.411Z,9.77
2018-05-29T11:21:04.691Z,11.65
2018-05-29T11:23:30.951Z,9.95
2018-05-29T11:25:57.965Z,10.73
2018-05-29T11:28:24.254Z,9.70
2018-05-29T11:30:50.643Z,11.32
2018-05-29T11:33:16.974Z,11.40
2018-05-29T11:35:43.233Z,10.63
2018-05-29T11:38:09.545Z,10.43
2018-05-29T11:40:35.792Z,12.37
2018-05-29T11:43:02.061Z,11.77
2018-05-29T11:45:28.282Z,11.07
2018-05-29T11:47:54.554Z,11.73
2018-05-29T11:50:20.846Z,11.30
2018-05-29T11:52:47.174Z,11.43
2018-05-29T11:55:13.460Z,11.27
2018-05-29T11:57:40.727Z,11.57
2018-05-29T12:00:07.014Z,11.83
2018-05-29T12:02:34.172Z,12.27
2018-05-29T12:05:00.375Z,12.77
2018-05-29T12:07:26.772Z,13.90
2018-05-29T12:09:53.085Z,14.17
2018-05-29T12:12:25.182Z,15.97
2018-05-29T12:14:51.488Z,13.37
2018-05-29T12:17:18.605Z,14.20
2018-05-29T12:19:44.909Z,15.50
2018-05-29T12:22:11.237Z,11.77
2018-05-29T12:24:37.513Z,13.67
2018-05-29T12:27:03.829Z,11.90
2018-05-29T12:29:30.184Z,12.07
2018-05-29T12:31:56.538Z,12.07
2018-05-29T12:34:22.847Z,12.13
2018-05-29T12:36:49.112Z,12.97
2018-05-29T12:39:15.394Z,13.57
2018-05-29T12:41:41.709Z,11.87
2018-05-29T12:44:08.729Z,11.97
2018-05-29T12:46:34.961Z,12.97
2018-05-29T12:49:01.236Z,12.10
2018-05-29T12:51:28.284Z,15.67
2018-05-29T12:53:55.622Z,13.57
2018-05-29T12:56:26.738Z,16.23
2018-05-29T12:58:53.084Z,13.63
2018-05-29T13:01:29.651Z,13.53
2018-05-29T13:03:56.153Z,14.07
2018-05-29T13:06:22.628Z,13.83
2018-05-29T13:08:52.051Z,13.53
2018-05-29T13:11:19.270Z,13.40
2018-05-29T13:13:46.281Z,13.40
2018-05-29T13:16:12.631Z,13.87
2018-05-29T13:18:39.334Z,14.70
2018-05-29T13:21:05.617Z,15.10
2018-05-29T13:23:31.892Z,16.37
2018-05-29T13:25:58.980Z,17.33
2018-05-29T13:28:25.277Z,18.03
2018-05-29T13:30:51.561Z,15.77
2018-05-29T13:33:18.587Z,19.80
2018-05-29T13:35:44.896Z,17.93
2018-05-29T13:38:11.180Z,17.57
2018-05-29T13:40:37.441Z,19.00
2018-05-29T13:43:03.772Z,18.07
2018-05-29T13:45:29.983Z,16.73
2018-05-29T13:47:57.050Z,16.00
2018-05-29T13:50:24.061Z,15.20
2018-05-29T13:52:50.328Z,12.63
2018-05-29T13:55:16.634Z,14.53
2018-05-29T13:57:42.933Z,14.90
2018-05-29T14:00:09.266Z,16.87
2018-05-29T14:02:35.547Z,13.07
2018-05-29T14:05:01.847Z,12.53
2018-05-29T14:07:28.671Z,11.73
2018-05-29T14:09:55.740Z,11.77
2018-05-29T14:12:22.073Z,12.30
2018-05-29T14:14:48.403Z,11.43
2018-05-29T14:17:14.641Z,13.40
2018-05-29T14:19:40.909Z,14.43
2018-05-29T14:22:07.224Z,12.87
2018-05-29T14:24:33.523Z,11.13
2018-05-29T14:27:03.728Z,13.27
2018-05-29T14:29:30.360Z,12.50
2018-05-29T14:31:56.633Z,11.90
2018-05-29T14:34:22.961Z,16.90
2018-05-29T14:36:50.727Z,13.17
2018-05-29T14:39:16.987Z,11.70
2018-05-29T14:41:44.037Z,11.47
2018-05-29T14:44:11.930Z,11.17
2018-05-29T14:46:38.150Z,12.03
2018-05-29T14:49:05.198Z,15.63
2018-05-29T14:51:31.473Z,10.63
2018-05-29T14:53:57.731Z,11.27
2018-05-29T14:56:24.051Z,11.23
2018-05-29T14:58:50.398Z,13.03
2018-05-29T15:01:16.681Z,13.33
2018-05-29T15:03:43.742Z,12.40
2018-05-29T15:06:10.852Z,12.27
2018-05-29T15:08:37.150Z,13.33
2018-05-29T15:11:03.394Z,11.10
2018-05-29T15:13:29.701Z,11.43
2018-05-29T15:15:55.991Z,12.43
2018-05-29T15:18:22.325Z,12.77
2018-05-29T15:20:48.637Z,15.67
2018-05-29T15:23:15.068Z,10.97
2018-05-29T15:25:41.393Z,12.37
2018-05-29T15:28:07.711Z,11.73
2018-05-29T15:30:34.799Z,10.13
2018-05-29T15:33:01.117Z,11.67
2018-05-29T15:35:27.445Z,13.07
2018-05-29T15:37:54.485Z,10.27
2018-05-29T15:40:21.538Z,10.73
2018-05-29T15:42:48.003Z,9.70
2018-05-29T15:45:14.332Z,10.93
2018-05-29T15:47:41.395Z,13.10
2018-05-29T15:50:07.772Z,15.53
2018-05-29T15:52:34.085Z,8.53
2018-05-29T15:55:00.342Z,13.00
2018-05-29T15:57:26.661Z,12.57
2018-05-29T15:59:53.014Z,10.00
2018-05-29T16:02:19.273Z,9.97
2018-05-29T16:04:46.286Z,10.40
2018-05-29T16:07:12.646Z,11.07
2018-05-29T16:09:38.990Z,14.23
2018-05-29T16:12:05.274Z,9.83
2018-05-29T16:14:31.548Z,9.00
2018-05-29T16:16:57.883Z,10.17
2018-05-29T16:19:24.202Z,9.37
2018-05-29T16:21:50.430Z,10.30
2018-05-29T16:24:16.819Z,9.70
2018-05-29T16:26:43.993Z,12.33
2018-05-29T16:29:11.350Z,13.27
2018-05-29T16:31:38.824Z,11.10
2018-05-29T16:34:05.809Z,10.10
2018-05-29T16:36:32.098Z,13.23
2018-05-29T16:38:59.159Z,11.37
2018-05-29T16:41:26.274Z,12.40
2018-05-29T16:43:52.565Z,13.33
2018-05-29T16:46:18.883Z,10.93
2018-05-29T16:48:46.244Z,11.00
2018-05-29T16:51:12.557Z,11.70
2018-05-29T16:53:38.881Z,9.77
2018-05-29T16:56:05.174Z,18.07
2018-05-29T16:58:31.449Z,13.57
2018-05-29T17:00:57.765Z,16.47
2018-05-29T17:03:24.015Z,16.17
2018-05-29T17:05:50.319Z,21.27
2018-05-29T17:08:16.653Z,25.37
2018-05-29T17:10:42.920Z,16.20
2018-05-29T17:13:09.229Z,13.67
2018-05-29T17:15:35.536Z,15.47
2018-05-29T17:18:02.580Z,15.23
2018-05-29T17:20:28.862Z,11.07
2018-05-29T17:22:55.208Z,11.53
2018-05-29T17:25:21.486Z,12.13
2018-05-29T17:27:47.807Z,11.60
2018-05-29T17:30:14.073Z,10.50
2018-05-29T17:32:41.138Z,11.57
2018-05-29T17:35:07.405Z,10.80
2018-05-29T17:37:33.713Z,19.13
2018-05-29T17:40:00.746Z,14.03
2018-05-29T17:42:27.014Z,13.70
2018-05-29T17:44:53.298Z,14.00
2018-05-29T17:47:19.587Z,11.10
2018-05-29T17:49:45.870Z,11.83
2018-05-29T17:52:12.210Z,13.37
2018-05-29T17:54:38.523Z,13.23
2018-05-29T17:57:04.827Z,9.43
2018-05-29T17:59:31.165Z,11.80
2018-05-29T18:01:57.525Z,13.57
2018-05-29T18:04:23.826Z,11.00
2018-05-29T18:06:50.890Z,10.70
2018-05-29T18:09:17.243Z,12.80
2018-05-29T18:11:43.531Z,14.30
2018-05-29T18:14:10.528Z,10.53
2018-05-29T18:16:36.789Z,11.40
2018-05-29T18:19:03.105Z,12.77
2018-05-29T18:21:30.509Z,12.73
2018-05-29T18:23:57.573Z,11.40
2018-05-29T18:26:24.653Z,11.37
2018-05-29T18:28:50.986Z,11.60
2018-05-29T18:31:18.477Z,12.10
2018-05-29T18:33:45.042Z,12.07
2018-05-29T18:36:11.757Z,12.07
2018-05-29T18:38:38.249Z,11.93
2018-05-29T18:41:05.522Z,11.27
2018-05-29T18:43:31.845Z,10.40
2018-05-29T18:45:58.135Z,11.73
2018-05-29T18:48:24.574Z,9.93
2018-05-29T18:50:50.885Z,10.47
2018-05-29T18:53:17.138Z,13.27
2018-05-29T18:55:43.430Z,11.50
2018-05-29T18:58:09.713Z,12.33
2018-05-29T19:00:36.002Z,11.60
2018-05-29T19:03:03.159Z,12.37
2018-05-29T19:05:30.325Z,11.27
2018-05-29T19:07:56.616Z,11.73
2018-05-29T19:10:22.994Z,12.50
2018-05-29T19:12:50.051Z,11.00
2018-05-29T19:15:17.058Z,12.67
2018-05-29T19:17:43.392Z,11.10
2018-05-29T19:20:09.750Z,14.00
2018-05-29T19:22:36.015Z,11.00
2018-05-29T19:25:03.203Z,10.57
2018-05-29T19:27:29.523Z,10.73
2018-05-29T19:29:55.826Z,12.00
2018-05-29T19:32:25.000Z,14.23
2018-05-29T19:34:51.749Z,9.40
2018-05-29T19:37:19.475Z,11.70
2018-05-29T19:39:47.143Z,11.47
2018-05-29T19:42:13.484Z,9.93
2018-05-29T19:44:39.803Z,10.53
2018-05-29T19:47:06.823Z,10.50
2018-05-29T19:49:33.137Z,10.43
2018-05-29T19:51:59.437Z,11.47
2018-05-29T19:54:25.782Z,9.80
2018-05-29T19:56:52.030Z,9.90
2018-05-29T19:59:18.320Z,12.27
2018-05-29T20:01:44.651Z,11.03
2018-05-29T20:04:12.058Z,9.90
2018-05-29T20:06:38.412Z,9.87
2018-05-29T20:09:04.693Z,10.07
2018-05-29T20:11:31.002Z,11.50
2018-05-29T20:13:57.304Z,11.00
2018-05-29T20:16:23.585Z,8.73
2018-05-29T20:18:49.894Z,9.80
2018-05-29T20:21:16.206Z,10.10
2018-05-29T20:23:42.474Z,14.40
2018-05-29T20:26:08.823Z,10.20
2018-05-29T20:28:35.051Z,11.43
2018-05-29T20:31:01.358Z,10.90
2018-05-29T20:33:27.708Z,11.07
2018-05-29T20:35:53.981Z,10.93
2018-05-29T20:38:20.263Z,10.27
2018-05-29T20:40:46.578Z,10.87
2018-05-29T20:43:13.628Z,9.97
2018-05-29T20:45:40.713Z,9.17
2018-05-29T20:48:06.991Z,12.90
2018-05-29T20:50:33.350Z,10.93
2018-05-29T20:53:00.358Z,10.00
2018-05-29T20:55:28.690Z,10.83
2018-05-29T20:57:55.685Z,10.67
2018-05-29T21:00:21.944Z,12.03
2018-05-29T21:02:48.235Z,10.20
2018-05-29T21:05:14.497Z,11.13
2018-05-29T21:07:41.013Z,9.77
2018-05-29T21:10:07.287Z,10.97
2018-05-29T21:12:34.346Z,11.50
2018-05-29T21:15:00.620Z,11.27
2018-05-29T21:17:26.928Z,10.63
2018-05-29T21:19:53.959Z,10.30
2018-05-29T21:22:20.284Z,12.90
2018-05-29T21:24:47.239Z,7.70
2018-05-29T21:27:15.274Z,7.63
2018-05-29T21:29:41.679Z,6.97
2018-05-29T21:32:07.952Z,9.00
2018-05-29T21:34:34.235Z,8.43
2018-05-29T21:37:00.538Z,11.50
2018-05-29T21:39:26.801Z,11.90
2018-05-29T21:41:53.066Z,10.63
2018-05-29T21:44:20.055Z,8.97
2018-05-29T21:46:46.344Z,9.37
2018-05-29T21:49:12.618Z,6.37
2018-05-29T21:51:38.925Z,8.47
2018-05-29T21:54:05.984Z,10.37
2018-05-29T21:56:33.026Z,9.30
2018-05-29T21:59:00.063Z,11.73
2018-05-29T22:01:26.374Z,8.17
2018-05-29T22:03:52.626Z,9.27
2018-05-29T22:06:18.918Z,7.23
2018-05-29T22:08:45.238Z,7.60
2018-05-29T22:11:12.291Z,8.37
2018-05-29T22:13:39.285Z,11.00
2018-05-29T22:18:38.513Z,8.30
2018-05-29T22:21:04.765Z,8.20
2018-05-29T22:23:31.057Z,10.53
2018-05-29T22:25:57.369Z,7.23
2018-05-29T22:28:24.455Z,10.90
2018-05-29T22:30:50.793Z,7.90
2018-05-29T22:33:17.145Z,10.93
2018-05-29T22:35:43.670Z,10.63
2018-05-29T22:38:09.937Z,9.07
2018-05-29T22:40:36.222Z,7.63
2018-05-29T22:43:02.529Z,12.17
2018-05-29T22:45:28.795Z,12.03
2018-05-29T22:47:55.844Z,8.30
2018-05-29T22:50:22.870Z,8.60
2018-05-29T22:52:49.185Z,10.73
2018-05-29T22:55:15.447Z,8.80
2018-05-29T22:57:42.594Z,8.00
2018-05-29T23:00:08.922Z,11.27
2018-05-29T23:02:35.222Z,11.77
2018-05-29T23:05:01.490Z,9.10
2018-05-29T23:07:27.793Z,10.03
2018-05-29T23:09:54.092Z,12.23
2018-05-29T23:12:21.095Z,7.40
2018-05-29T23:14:47.377Z,8.70
2018-05-29T23:17:13.661Z,11.50
2018-05-29T23:19:39.933Z,13.90
2018-05-29T23:22:06.253Z,9.60
2018-05-29T23:24:32.540Z,9.53
2018-05-29T23:26:59.583Z,8.27
2018-05-29T23:29:26.599Z,9.37
2018-05-29T23:31:53.093Z,8.97
2018-05-29T23:34:19.430Z,10.50
2018-05-29T23:36:45.733Z,9.57
2018-05-29T23:39:12.112Z,9.77
2018-05-29T23:41:38.423Z,8.83
2018-05-29T23:44:05.458Z,9.70
2018-05-29T23:46:31.806Z,9.37
2018-05-29T23:48:58.873Z,12.37
2018-05-29T23:51:25.906Z,7.50
2018-05-29T23:53:53.713Z,11.23
2018-05-29T23:56:20.057Z,11.30
2018-05-29T23:58:46.354Z,9.77
